Tiempo atmosférico en la estación meteorológica de Chipiona, Cádiz (10 m.)

Fecha
DESCASC
Temp. máxima en grados centígrados (hora)
DESCASC
Temp. mínima en grados centígrados (hora)
DESCASC
Temp. media en grados centígrados
DESCASC
Racha de viento máxima en m/sg (hora)
DESCASC
Velocidad máxima media en intervalos de 10 minutos(hora)
DESCASC
Precipitaciones diarias en mm
DESCASC
Precipitaciones de 00:00 a 06:00 en mm
DESCASC
Precipitaciones de 06:00 a 12:00 en mm
DESCASC
Precipitaciones de 12:00 a 18:00 en mm
DESCASC
Precipitaciones de 18:00 a 24:00 en mm
DESCASC
17-09-2017 23.5 (16:10) 11.4 (08:20) 17.4 7.22 (14:00) 4.44 (21:40) 0 0 0 0 0
16-09-2017 22.3 (00:00) 12 (08:30) 17.1 10.28 (00:10) 6.94 (00:20) 0 0 0 0 0
15-09-2017 23.4 (02:10) 18.2 (08:30) 20.8 10.28 (19:30) 7.22 (13:20) 0 0 0 0 0
14-09-2017 26.2 (12:30) 17.8 (00:00) 22 7.5 (15:10) 5.28 (15:10) 0 0 0 0 0
13-09-2017 31.1 (16:50) 17.8 (00:00) 24.4 7.5 (18:50) 5.28 (18:40) 0 0 0 0 0
12-09-2017 32.6 (13:40) 16.8 (00:00) 24.7 7.5 (16:50) 5.28 (16:30) 0 0 0 0 0
11-09-2017 29.6 (13:40) 14.7 (00:00) 22.2 7.78 (15:30) 5 (15:30) 0 0 0 0 0
10-09-2017 25 (17:50) 17.7 (00:00) 21.4 12.22 (00:20) 7.5 (00:20) 0 0 0 0 0
09-09-2017 25.1 (16:20) 19.1 (00:00) 22.1 12.78 (23:30) 8.33 (22:10) 0 0 0 0 0
08-09-2017 29.2 (12:10) 17.8 (00:00) 23.5 6.94 (16:20) 5 (16:10) 0 0 0 0 0
07-09-2017 32.5 (13:40) 19.2 (00:00) 25.9 6.39 (16:40) 4.72 (16:50) 0 0 0 0 0
06-09-2017 30.1 (16:00) 20.2 (00:00) 25.2 6.39 (17:30) 4.72 (17:10) 0 0 0 0 0
05-09-2017 28.9 (14:10) 19.3 (00:00) 24.1 8.33 (00:30) 5.28 (16:10) 0 0 0 0 0
04-09-2017 28.3 (16:00) 20.5 (00:00) 24.4 11.11 (18:40) 7.5 (18:30) 0 0 0 0 0
03-09-2017 29 (16:00) 20.8 (00:00) 24.9 8.33 (19:30) 5.56 (18:10) 0 0 0 0 0
02-09-2017 34 (17:30) 21.4 (00:00) 27.7 12.22 (19:30) 7.22 (19:20) 0 0 0 0 0
01-09-2017 31.4 (13:20) 19.7 (00:00) 25.6 7.5 (13:40) 5.56 (18:00) 0 0 0 0 0
31-08-2017 29.3 (14:00) 18.2 (00:00) 23.8 8.06 (18:10) 5.83 (17:50) 0 0 0 0 0
30-08-2017 26.3 (13:50) 16.8 (00:00) 21.5 8.61 (16:40) 5.83 (16:40) 0 0 0 0 0
29-08-2017 25 (16:30) 18.1 (00:00) 21.6 8.33 (16:40) 5 (19:10) 2.4 1.8 0.2 0.4 0
28-08-2017 25.7 (16:40) 20.4 (00:00) 23.1 10 (17:10) 6.11 (17:00) 0 0 0 0 0
27-08-2017 29.1 (14:30) 22.1 (00:00) 25.6 10.56 (14:40) 6.39 (17:40) 0.8 0 0.8 0 0
26-08-2017 36.1 (15:30) 21.5 (00:00) 28.8 11.39 (18:30) 6.11 (18:30) 0 0 0 0 0
25-08-2017 30.2 (13:40) 21.3 (00:00) 25.8 8.33 (03:40) 5.56 (03:40) 0.2 0.2 0 0 0
24-08-2017 28.8 (16:00) 18.5 (00:00) 23.6 6.39 (14:10) 4.72 (14:00) 0 0 0 0 0
23-08-2017 30.8 (15:30) 18.5 (00:00) 24.6 7.78 (18:30) 5.56 (18:30) 0 0 0 0 0
22-08-2017 32.8 (12:50) 20.7 (00:00) 26.8 7.78 (16:40) 5.56 (17:20) 0 0 0 0 0

Gráficas

Temp. máximas Temp. mínimas Temp. medias Precipitaciones Rachas de viento máximas Velocidades máximas media en intervalos de 10 minutos

Datos horarios

Fecha y hora oficial Temperatura (ºC) Velocidad del viento (km/h) Dirección del viento Racha (km/h) Dirección de racha Precipitación (mm) Presión (hPa) Tendencia (hPa) Humedad (%)
2017-09-20 23:00:00 19.2 2 Sudeste 6 Oeste 0 -- -- 86
2017-09-20 22:00:00 20.2 4 Oeste 7 Oeste 0 -- -- 84
2017-09-20 21:00:00 21.3 4 Oeste 10 Oeste 0 -- -- 81
2017-09-20 20:00:00 22.7 6 Oeste 14 Sudoeste 0 -- -- 77
2017-09-20 19:00:00 23.6 11 Oeste 18 Oeste 0 -- -- 73
2017-09-20 18:00:00 24.5 12 Oeste 19 Oeste 0 -- -- 70
2017-09-20 17:00:00 24.3 12 Oeste 21 Oeste 0 -- -- 70
2017-09-20 16:00:00 23.8 13 Oeste 21 Oeste 0 -- -- 76
2017-09-20 15:00:00 24.9 13 Oeste 22 Oeste 0 -- -- 70
2017-09-20 14:00:00 26.3 12 Sudoeste 21 Sudoeste 0 -- -- 54
2017-09-20 13:00:00 26.1 10 Sudoeste 15 Sudoeste 0 -- -- 55
2017-09-20 12:00:00 25.7 6 Sur 18 Sudeste 0 -- -- 56
2017-09-20 11:00:00 23.9 10 Sudeste 20 Sudeste 0 -- -- 60
2017-09-20 10:00:00 20.3 2 Este 4 Este 0 -- -- 93
2017-09-20 09:00:00 16.1 3 Sudeste 6 Sudeste 0 -- -- 98
2017-09-20 08:00:00 15.1 4 Sudeste 6 Sudeste 0 -- -- 96
2017-09-20 07:00:00 15.7 4 Sudeste 7 Sudeste 0 -- -- 96
2017-09-20 06:00:00 16.9 5 Sudeste 9 Sudeste 0 -- -- 97
2017-09-20 05:00:00 15.5 5 Sudeste 6 Sudeste 0 -- -- 96
2017-09-20 04:00:00 15.8 2 Este 6 Este 0 -- -- 94
2017-09-20 03:00:00 16.2 3 Este 6 Este 0 -- -- 94
2017-09-20 02:00:00 16.6 4 Este 6 Este 0 -- -- 94
2017-09-20 01:00:00 17.1 3 Sudeste 5 Sudeste 0 -- -- 91
2017-09-20 00:00:00 18 3 Sur 5 Sur 0 -- -- 89
2017-09-19 23:00:00 19.8 4 Oeste 10 Oeste 0 -- -- 89
2017-09-19 22:00:00 19.7 0 Calma 9 Sudoeste 0 -- -- 85
2017-09-19 21:00:00 20.9 6 Sudoeste 18 Sudoeste 0 -- -- 80
2017-09-19 20:00:00 22 11 Sudoeste 21 Oeste 0 -- -- 76
2017-09-19 19:00:00 22.8 15 Sudoeste 22 Sudoeste 0 -- -- 73
2017-09-19 18:00:00 23.4 14 Oeste 22 Oeste 0 -- -- 68
2017-09-19 17:00:00 24.1 15 Oeste 25 Oeste 0 -- -- 64
2017-09-19 16:00:00 24.5 18 Oeste 25 Oeste 0 -- -- 58
2017-09-19 15:00:00 24.5 16 Sudoeste 25 Sudoeste 0 -- -- 61
2017-09-19 14:00:00 24.1 17 Oeste 24 Sudoeste 0 -- -- 66
2017-09-19 13:00:00 24.6 7 Noroeste 12 Noroeste 0 -- -- 53
2017-09-19 12:00:00 22.8 7 Norte 13 Noroeste 0 -- -- 58
2017-09-19 11:00:00 20.9 2 Noroeste 8 Norte 0 -- -- 68
2017-09-19 10:00:00 18.6 5 Norte 11 Norte 0 -- -- 74
2017-09-19 09:00:00 16.4 3 Norte 7 Norte 0 -- -- 83
2017-09-19 08:00:00 15 3 Norte 5 Norte 0 -- -- 88
2017-09-19 07:00:00 15.7 2 Norte 5 Norte 0 -- -- 83
2017-09-19 06:00:00 16.8 3 Norte 8 Norte 0 -- -- 78
2017-09-19 05:00:00 18.5 4 Norte 13 Norte 0 -- -- 72
2017-09-19 04:00:00 19.9 6 Nordeste 18 Noroeste 0 -- -- 72
2017-09-19 03:00:00 20.5 7 Noroeste 21 Noroeste 0 -- -- 75
2017-09-19 02:00:00 20.9 11 Noroeste 21 Oeste 0 -- -- 76
2017-09-19 01:00:00 21.4 13 Oeste 28 Oeste 0 -- -- 79
2017-09-19 00:00:00 22.4 19 Oeste 28 Oeste 0 -- -- 74
2017-09-18 23:00:00 22.1 12 Oeste 22 Oeste 0 -- -- 79
2017-09-18 22:00:00 21.9 12 Oeste 26 Sudoeste 0 -- -- 83
2017-09-18 21:00:00 21.9 15 Sudoeste 30 Sudoeste 0 -- -- 82
2017-09-18 20:00:00 22 18 Sudoeste 40 Sudoeste 0 -- -- 81
2017-09-18 19:00:00 22.6 28 Sudoeste 42 Sudoeste 0 -- -- 73
2017-09-18 18:00:00 23.1 28 Sudoeste 40 Sudoeste 0 -- -- 67
2017-09-18 17:00:00 23.5 25 Sudoeste 38 Sudoeste 0 -- -- 68
2017-09-18 16:00:00 23.2 23 Sudoeste 32 Sudoeste 0 -- -- 65
2017-09-18 15:00:00 23.3 21 Oeste 31 Oeste 0 -- -- 63
2017-09-18 14:00:00 22.3 21 Oeste 30 Oeste 0 -- -- 66
2017-09-18 13:00:00 20.8 20 Oeste 28 Oeste 0 -- -- 67
2017-09-18 12:00:00 19.4 16 Oeste 26 Oeste 0 -- -- 69
2017-09-18 11:00:00 18.7 16 Oeste 24 Oeste 0 -- -- 70
2017-09-18 10:00:00 18.2 14 Oeste 21 Noroeste 0 -- -- 70
2017-09-18 09:00:00 17.9 11 Noroeste 18 Noroeste 0 -- -- 73
2017-09-18 08:00:00 18 12 Noroeste 21 Noroeste 0 -- -- 71
2017-09-18 07:00:00 18.6 9 Noroeste 19 Noroeste 0 -- -- 71
2017-09-18 06:00:00 18.6 10 Noroeste 19 Noroeste 0 -- -- 70
2017-09-18 05:00:00 19 10 Noroeste 16 Noroeste 0 -- -- 67
2017-09-18 04:00:00 19.3 9 Noroeste 16 Noroeste 0 -- -- 66
2017-09-18 03:00:00 20 10 Noroeste 21 Oeste 0 -- -- 62
2017-09-18 02:00:00 20.4 13 Oeste 21 Oeste 0 -- -- 65
2017-09-18 01:00:00 20 12 Oeste 23 Oeste 0 -- -- 66
2017-09-18 00:00:00 20.1 12 Oeste 25 Oeste 0 -- -- 66
2017-09-17 23:00:00 20.1 15 Oeste 25 Oeste 0 -- -- 66
2017-09-17 22:00:00 20.3 13 Oeste 25 Oeste 0 -- -- 69
2017-09-17 21:00:00 20.6 15 Sudoeste 21 Sudoeste 0 -- -- 70
2017-09-17 20:00:00 21.8 13 Oeste 23 Sudoeste 0 -- -- 64
2017-09-17 19:00:00 22.4 14 Sudoeste 23 Sudoeste 0 -- -- 62
2017-09-17 18:00:00 22.9 14 Sudoeste 21 Sudoeste 0 -- -- 57
2017-09-17 17:00:00 23 15 Sudoeste 24 Sudoeste 0 -- -- 57
2017-09-17 16:00:00 23.2 14 Sudoeste 21 Sudoeste 0 -- -- 56
2017-09-17 15:00:00 23.1 13 Sudoeste 23 Sudoeste 0 -- -- 57
2017-09-17 14:00:00 23 14 Sudoeste 26 Sudoeste 0 -- -- 64
2017-09-17 13:00:00 22.1 12 Oeste 17 Oeste 0 -- -- 67
2017-09-17 12:00:00 21.2 7 Oeste 12 Oeste 0 -- -- 70
2017-09-17 11:00:00 19.8 5 Oeste 9 Oeste 0 -- -- 70
2017-09-17 10:00:00 17.4 0 Calma 3 Nordeste 0 -- -- 78
2017-09-17 09:00:00 12.8 2 Este 5 Este 0 -- -- 95
2017-09-17 08:00:00 11.5 2 Este 6 Sudeste 0 -- -- 91
2017-09-17 07:00:00 12 3 Sudeste 6 Este 0 -- -- 91
2017-09-17 06:00:00 12.5 4 Sudeste 6 Este 0 -- -- 91
2017-09-17 05:00:00 12.9 4 Sudeste 5 Sudeste 0 -- -- 89
2017-09-17 04:00:00 13.7 3 Sudeste 5 Sudeste 0 -- -- 88
2017-09-17 03:00:00 14 5 Sudeste 6 Sudeste 0 -- -- 88
2017-09-17 02:00:00 14.6 4 Sudeste 6 Sudeste 0 -- -- 86
2017-09-17 01:00:00 15.3 5 Sudeste 6 Sudeste 0 -- -- 84
2017-09-17 00:00:00 16.2 5 Sudeste 6 Sudeste 0 -- -- 83
2017-09-16 23:00:00 17.9 3 Sur 14 Oeste 0 -- -- 77
2017-09-16 22:00:00 19.5 8 Oeste 18 Sudoeste 0 -- -- 75
2017-09-16 21:00:00 19.7 10 Sudoeste 25 Sur 0 -- -- 70
2017-09-16 20:00:00 20.9 12 Sudoeste 28 Sudoeste 0 -- -- 64
2017-09-16 19:00:00 21.7 16 Sudoeste 28 Sudoeste 0 -- -- 61
2017-09-16 18:00:00 21.8 15 Sudoeste 27 Sudoeste 0 -- -- 58
2017-09-16 17:00:00 21.7 17 Sudoeste 27 Sudoeste 0 -- -- 57
2017-09-16 16:00:00 21.8 17 Sudoeste 29 Sudoeste 0 -- -- 59
2017-09-16 15:00:00 21.8 17 Sudoeste 28 Sudoeste 0 -- -- 62
2017-09-16 14:00:00 21.2 17 Sudoeste 26 Sudoeste 0 -- -- 60
2017-09-16 13:00:00 20.5 14 Sudoeste 24 Sudoeste 0 -- -- 66
2017-09-16 12:00:00 19.8 14 Sudoeste 24 Sudoeste 0 -- -- 68
2017-09-16 11:00:00 19 10 Oeste 20 Oeste 0 -- -- 71
2017-09-16 10:00:00 18.1 12 Oeste 19 Oeste 0 -- -- 74
2017-09-16 09:00:00 13.5 3 Sudoeste 9 Oeste 0 -- -- 85
2017-09-16 08:00:00 12.3 3 Este 6 Este 0 -- -- 79
2017-09-16 07:00:00 13.7 4 Este 9 Este 0 -- -- 75
2017-09-16 06:00:00 16.6 6 Este 14 Noroeste 0 -- -- 69
2017-09-16 05:00:00 18.6 8 Noroeste 23 Noroeste 0 -- -- 65
2017-09-16 04:00:00 19.2 13 Noroeste 23 Noroeste 0 -- -- 63
2017-09-16 03:00:00 19.9 11 Noroeste 28 Noroeste 0 -- -- 60
2017-09-16 02:00:00 20.6 18 Noroeste 31 Noroeste 0 -- -- 55
2017-09-16 01:00:00 21.5 21 Noroeste 37 Noroeste 0 -- -- 53
2017-09-16 00:00:00 22.3 24 Noroeste 36 Noroeste 0 -- -- 51
2017-09-15 23:00:00 22.9 18 Oeste 27 Oeste 0 -- -- 56
2017-09-15 22:00:00 21.6 15 Sudoeste 29 Sudoeste 0 -- -- 73
2017-09-15 21:00:00 21.6 17 Sudoeste 29 Sudoeste 0 -- -- 71
2017-09-15 20:00:00 22.2 19 Sudoeste 37 Sudoeste 0 -- -- 64
2017-09-15 19:00:00 22.9 23 Sudoeste 36 Sudoeste 0 -- -- 62
2017-09-15 18:00:00 23.2 23 Sudoeste 35 Sudoeste 0 -- -- 53
2017-09-15 17:00:00 23 22 Sudoeste 34 Sudoeste 0 -- -- 57
2017-09-15 16:00:00 23.1 22 Sudoeste 36 Oeste 0 -- -- 52
2017-09-15 15:00:00 22.1 22 Oeste 35 Sudoeste 0 -- -- 56
2017-09-15 14:00:00 21.3 23 Oeste 36 Oeste 0 -- -- 61
2017-09-15 13:00:00 20.5 22 Oeste 35 Oeste 0 -- -- 66
2017-09-15 12:00:00 19.8 22 Oeste 36 Oeste 0 -- -- 69
2017-09-15 11:00:00 19 24 Oeste 37 Oeste 0 -- -- 73
2017-09-15 10:00:00 18.7 19 Oeste 33 Noroeste 0 -- -- 73
2017-09-15 09:00:00 18.2 21 Oeste 35 Noroeste 0 -- -- 75
2017-09-15 08:00:00 18.7 16 Noroeste 27 Noroeste 0 -- -- 69
2017-09-15 07:00:00 19.9 15 Noroeste 25 Oeste 0 -- -- 63
2017-09-15 06:00:00 21.3 13 Noroeste 22 Oeste 0 -- -- 55
2017-09-15 05:00:00 22.2 13 Noroeste 26 Noroeste 0 -- -- 54
2017-09-15 04:00:00 22.9 15 Noroeste 29 Noroeste 0 -- -- 65
2017-09-15 03:00:00 23.2 18 Noroeste 32 Oeste 0 -- -- 76
2017-09-15 02:00:00 23.3 15 Oeste 25 Oeste 0 -- -- 80
2017-09-15 01:00:00 22.8 12 Sudoeste 22 Sudoeste 0 -- -- 86
2017-09-15 00:00:00 22.9 14 Sudoeste 27 Sudoeste 0 -- -- 83
2017-09-14 23:00:00 22.7 15 Sudoeste 27 Sudoeste 0 -- -- 85
2017-09-14 22:00:00 22.5 15 Sudoeste 26 Sudoeste 0 -- -- 81
2017-09-14 21:00:00 22.8 11 Sudoeste 24 Sudoeste 0 -- -- 80
2017-09-14 20:00:00 24.6 9 Oeste 14 Oeste 0 -- -- 68
2017-09-14 19:00:00 25.2 11 Oeste 18 Oeste 0 -- -- 67
2017-09-14 18:00:00 24.3 8 Sudoeste 20 Sur 0 -- -- 71
2017-09-14 17:00:00 25 12 Sudoeste 22 Sudoeste 0 -- -- 64
2017-09-14 16:00:00 25.1 15 Sudoeste 27 Oeste 0 -- -- 62
2017-09-14 15:00:00 25.3 15 Sudoeste 26 Sudoeste 0 -- -- 69
2017-09-14 14:00:00 25.8 14 Sudoeste 26 Sudoeste 0 -- -- 72
2017-09-14 13:00:00 25.8 13 Sur 22 Sudoeste 0 -- -- 69
2017-09-14 12:00:00 25.2 7 Sudoeste 15 Sur 0 -- -- 74
2017-09-14 11:00:00 24 9 Sudoeste 18 Sudoeste 0 -- -- 81
2017-09-14 10:00:00 22.4 5 Sudoeste 11 Sudoeste 0 -- -- 89
2017-09-14 09:00:00 19.2 2 Sudeste 6 Sur 0 -- -- 99
2017-09-14 08:00:00 18.1 6 Sudoeste 8 Sudoeste 0 -- -- 97
2017-09-14 07:00:00 18.3 4 Sur 8 Sudeste 0 -- -- 96
2017-09-14 06:00:00 18.1 4 Sudeste 8 Sur 0 -- -- 93
2017-09-14 05:00:00 18.1 5 Sudeste 7 Sudeste 0 -- -- 93
2017-09-14 04:00:00 18.8 4 Sudeste 5 Este 0 -- -- 91
2017-09-14 03:00:00 19.8 4 Sudeste 6 Sudeste 0 -- -- 88
2017-09-14 02:00:00 22 5 Sudoeste 13 Sudoeste 0 -- -- 85
2017-09-14 01:00:00 22.5 9 Oeste 17 Oeste 0 -- -- 88
2017-09-14 00:00:00 22.7 10 Oeste 17 Oeste 0 -- -- 91
2017-09-13 23:00:00 22.8 10 Oeste 16 Sudoeste 0 -- -- 91
2017-09-13 22:00:00 23.1 9 Oeste 15 Oeste 0 -- -- 88
2017-09-13 21:00:00 23.7 9 Oeste 19 Sudoeste 0 -- -- 85
2017-09-13 20:00:00 25.5 12 Oeste 21 Oeste 0 -- -- 79
2017-09-13 19:00:00 26.8 17 Sudoeste 27 Sudoeste 0 -- -- 69
2017-09-13 18:00:00 29 17 Oeste 24 Oeste 0 -- -- 55
2017-09-13 17:00:00 30.9 14 Oeste 19 Sudoeste 0 -- -- 48
2017-09-13 16:00:00 30 12 Oeste 18 Oeste 0 -- -- 56
2017-09-13 15:00:00 30.2 13 Oeste 18 Oeste 0 -- -- 46
2017-09-13 14:00:00 28.4 13 Oeste 18 Oeste 0 -- -- 56
2017-09-13 13:00:00 29 9 Norte 15 Norte 0 -- -- 47
2017-09-13 12:00:00 28.7 6 Norte 13 Este 0 -- -- 48
2017-09-13 11:00:00 27 6 Nordeste 15 Este 0 -- -- 60
2017-09-13 10:00:00 24.7 7 Nordeste 17 Este 0 -- -- 68
2017-09-13 09:00:00 21.6 11 Este 16 Este 0 -- -- 80
2017-09-13 08:00:00 19.8 8 Este 15 Sudeste 0 -- -- 83
2017-09-13 07:00:00 19.2 9 Sudeste 13 Sudeste 0 -- -- 84
2017-09-13 06:00:00 18.4 4 Sudeste 8 Este 0 -- -- 77
2017-09-13 05:00:00 20.2 8 Sudeste 16 Este 0 -- -- 69
2017-09-13 04:00:00 18.9 6 Sudeste 11 Sudeste 0 -- -- 71
2017-09-13 03:00:00 19.2 5 Sudeste 14 Sudeste 0 -- -- 73
2017-09-13 02:00:00 20 3 Este 7 Este 0 -- -- 75
2017-09-13 01:00:00 21.8 5 Este 10 Nordeste 0 -- -- 72
2017-09-13 00:00:00 24.2 6 Nordeste 14 Oeste 0 -- -- 72
2017-09-12 23:00:00 25.2 9 Noroeste 19 Oeste 0 -- -- 71
2017-09-12 22:00:00 25.5 9 Oeste 21 Oeste 0 -- -- 68
2017-09-12 21:00:00 26.4 13 Oeste 21 Oeste 0 -- -- 66
2017-09-12 20:00:00 28.9 12 Oeste 21 Oeste 0 -- -- 52
2017-09-12 19:00:00 29.7 15 Oeste 24 Oeste 0 -- -- 50
2017-09-12 18:00:00 29.9 16 Oeste 26 Oeste 0 -- -- 50
2017-09-12 17:00:00 30 17 Oeste 27 Oeste 0 -- -- 53
2017-09-12 16:00:00 29.7 18 Oeste 25 Oeste 0 -- -- 51
2017-09-12 15:00:00 29.6 14 Oeste 20 Oeste 0 -- -- 52
2017-09-12 14:00:00 30.9 13 Oeste 21 Norte 0 -- -- 48
2017-09-12 13:00:00 31.3 11 Norte 22 Norte 0 -- -- 36
2017-09-12 12:00:00 29.4 10 Norte 21 Norte 0 -- -- 39
2017-09-12 11:00:00 25.7 8 Norte 18 Nordeste 0 -- -- 47
2017-09-12 10:00:00 23.1 6 Nordeste 20 Norte 0 -- -- 54
2017-09-12 09:00:00 20 4 Norte 11 Norte 0 -- -- 68
2017-09-12 08:00:00 19.1 4 Norte 12 Norte 0 -- -- 67
2017-09-12 07:00:00 18 4 Norte 8 Norte 0 -- -- 82
2017-09-12 06:00:00 16.8 2 Norte 6 Nordeste 0 -- -- 82
2017-09-12 05:00:00 17 0 Calma 2 Noroeste 0 -- -- 82
2017-09-12 04:00:00 17.8 0 Calma 5 Nordeste 0 -- -- 77
2017-09-12 03:00:00 18.7 3 Este 6 Sudeste 0 -- -- 74
2017-09-12 02:00:00 19.4 2 Este 7 Sudeste 0 -- -- 75
2017-09-12 01:00:00 20.8 4 Este 8 Este 0 -- -- 74
2017-09-12 00:00:00 23.3 6 Noroeste 12 Oeste 0 -- -- 70
2017-09-11 23:00:00 23.9 8 Noroeste 17 Oeste 0 -- -- 67
2017-09-11 22:00:00 24.1 13 Noroeste 20 Oeste 0 -- -- 66
2017-09-11 21:00:00 24.4 12 Oeste 26 Oeste 0 -- -- 64
2017-09-11 20:00:00 27.6 11 Oeste 19 Oeste 0 -- -- 53
2017-09-11 19:00:00 27.8 13 Oeste 23 Oeste 0 -- -- 52
2017-09-11 18:00:00 27.5 15 Oeste 22 Oeste 0 -- -- 52
2017-09-11 17:00:00 26.9 16 Oeste 22 Sudoeste 0 -- -- 62
2017-09-11 16:00:00 27.3 14 Oeste 28 Noroeste 0 -- -- 59
2017-09-11 15:00:00 28.3 16 Oeste 22 Oeste 0 -- -- 51
2017-09-11 14:00:00 29.6 10 Noroeste 18 Noroeste 0 -- -- 40
2017-09-11 13:00:00 28 8 Norte 17 Nordeste 0 -- -- 39
2017-09-11 12:00:00 25.6 6 Nordeste 21 Nordeste 0 -- -- 50
2017-09-11 11:00:00 22.9 9 Nordeste 21 Nordeste 0 -- -- 60
2017-09-11 10:00:00 20 5 Nordeste 14 Norte 0 -- -- 77
2017-09-11 09:00:00 17 4 Este 12 Nordeste 0 -- -- 91
2017-09-11 08:00:00 15.6 3 Norte 9 Norte 0 -- -- 93
2017-09-11 07:00:00 14.8 3 Noroeste 10 Este 0 -- -- 89
2017-09-11 06:00:00 15.9 6 Nordeste 10 Este 0 -- -- 86
2017-09-11 05:00:00 15.8 6 Este 10 Este 0 -- -- 86
2017-09-11 04:00:00 16.4 6 Este 11 Este 0 -- -- 82
2017-09-11 03:00:00 17.1 5 Nordeste 10 Este 0 -- -- 81
2017-09-11 02:00:00 19.4 6 Este 18 Oeste 0 -- -- 74
2017-09-11 01:00:00 21.8 11 Oeste 21 Oeste 0 -- -- 67
2017-09-11 00:00:00 21.6 12 Oeste 21 Oeste 0 -- -- 67
2017-09-10 23:00:00 21.5 14 Oeste 23 Oeste 0 -- -- 72
2017-09-10 22:00:00 21.3 14 Oeste 21 Sudoeste 0 -- -- 76
2017-09-10 21:00:00 21.4 14 Oeste 27 Oeste 0 -- -- 72
2017-09-10 20:00:00 22.7 17 Oeste 27 Oeste 0 -- -- 67
2017-09-10 19:00:00 24.7 14 Oeste 23 Oeste 0 -- -- 47
2017-09-10 18:00:00 24.9 16 Oeste 24 Oeste 0 -- -- 45
2017-09-10 17:00:00 24.6 18 Oeste 24 Sudoeste 0 -- -- 49
2017-09-10 16:00:00 23.9 17 Oeste 26 Oeste 0 -- -- 54
2017-09-10 15:00:00 23.5 15 Oeste 23 Oeste 0 -- -- 56
2017-09-10 14:00:00 22.8 13 Oeste 20 Oeste 0 -- -- 57
2017-09-10 13:00:00 22.1 11 Oeste 17 Oeste 0 -- -- 57
2017-09-10 12:00:00 21.3 9 Oeste 16 Noroeste 0 -- -- 54
2017-09-10 11:00:00 20.3 6 Norte 15 Noroeste 0 -- -- 58
2017-09-10 10:00:00 19.4 6 Noroeste 15 Noroeste 0 -- -- 63
2017-09-10 09:00:00 18.2 5 Norte 14 Norte 0 -- -- 67
2017-09-10 08:00:00 17.8 6 Noroeste 23 Noroeste 0 -- -- 68
2017-09-10 07:00:00 17.9 9 Noroeste 24 Noroeste 0 -- -- 68
2017-09-10 06:00:00 18.2 8 Noroeste 21 Norte 0 -- -- 67
2017-09-10 05:00:00 18.9 9 Noroeste 29 Noroeste 0 -- -- 65
2017-09-10 04:00:00 19.6 13 Noroeste 35 Noroeste 0 -- -- 64
2017-09-10 03:00:00 20.3 20 Noroeste 41 Noroeste 0 -- -- 63
2017-09-10 02:00:00 20.9 22 Noroeste 41 Noroeste 0 -- -- 59
2017-09-10 01:00:00 22 25 Noroeste 44 Oeste 0 -- -- 56
2017-09-10 00:00:00 23.2 27 Noroeste 46 Noroeste 0 -- -- 51
2017-09-09 23:00:00 24.3 29 Noroeste 45 Oeste 0 -- -- 53
2017-09-09 22:00:00 24.9 26 Oeste 40 Oeste 0 -- -- 62
2017-09-09 21:00:00 23.6 19 Sudoeste 38 Sudoeste 0 -- -- 78
2017-09-09 20:00:00 23.5 24 Sudoeste 43 Sudoeste 0 -- -- 75
2017-09-09 19:00:00 24.3 29 Sudoeste 44 Oeste 0 -- -- 71
2017-09-09 18:00:00 24.9 26 Sudoeste 38 Sudoeste 0 -- -- 67
2017-09-09 17:00:00 24.5 27 Sudoeste 39 Sudoeste 0 -- -- 67
2017-09-09 16:00:00 24.8 26 Oeste 39 Oeste 0 -- -- 64
2017-09-09 15:00:00 24.3 24 Oeste 36 Oeste 0 -- -- 66
2017-09-09 14:00:00 23.4 22 Oeste 39 Oeste 0 -- -- 66
2017-09-09 13:00:00 22.3 21 Oeste 32 Oeste 0 -- -- 71
2017-09-09 12:00:00 21.7 22 Oeste 32 Noroeste 0 -- -- 71
2017-09-09 11:00:00 20.9 21 Noroeste 39 Oeste 0 -- -- 75
2017-09-09 10:00:00 19.9 27 Oeste 43 Noroeste 0 -- -- 80
2017-09-09 09:00:00 19.5 23 Oeste 36 Noroeste 0 -- -- 82
2017-09-09 08:00:00 19.1 22 Oeste 37 Oeste 0 -- -- 80
2017-09-09 07:00:00 19.7 21 Noroeste 33 Oeste 0 -- -- 75
2017-09-09 06:00:00 20.9 18 Oeste 26 Oeste 0 -- -- 67
2017-09-09 05:00:00 22 12 Noroeste 23 Noroeste 0 -- -- 55
2017-09-09 04:00:00 22.7 15 Noroeste 25 Noroeste 0 -- -- 56
2017-09-09 03:00:00 23.9 15 Noroeste 27 Noroeste 0 -- -- 51
2017-09-09 02:00:00 24.2 8 Noroeste 14 Oeste 0 -- -- 57
2017-09-09 01:00:00 24.6 7 Noroeste 15 Noroeste 0 -- -- 68
2017-09-09 00:00:00 24.9 10 Oeste 17 Oeste 0 -- -- 76
2017-09-08 23:00:00 23.6 9 Sudoeste 18 Sudoeste 0 -- -- 83
2017-09-08 22:00:00 24 10 Sudoeste 20 Sudoeste 0 -- -- 85
2017-09-08 21:00:00 24.8 12 Oeste 22 Oeste 0 -- -- 81
2017-09-08 20:00:00 26 14 Oeste 25 Oeste 0 -- -- 73
2017-09-08 19:00:00 26.8 17 Sudoeste 23 Sudoeste 0 -- -- 73
2017-09-08 18:00:00 27.8 14 Oeste 21 Oeste 0 -- -- 70
2017-09-08 17:00:00 27.6 16 Oeste 25 Oeste 0 -- -- 73
2017-09-08 16:00:00 27.5 17 Oeste 24 Sudoeste 0 -- -- 74
2017-09-08 15:00:00 27.5 16 Oeste 23 Oeste 0 -- -- 71
2017-09-08 14:00:00 27.8 14 Oeste 20 Oeste 0 -- -- 66
2017-09-08 13:00:00 27.3 12 Oeste 16 Oeste 0 -- -- 65
2017-09-08 12:00:00 29.1 7 Sudeste 18 Este 0 -- -- 52
2017-09-08 11:00:00 26.5 9 Sudeste 17 Sudeste 0 -- -- 60
2017-09-08 10:00:00 23.2 3 Este 5 Este 0 -- -- 74
2017-09-08 09:00:00 18.9 3 Este 6 Este 0 -- -- 88
2017-09-08 08:00:00 18.1 4 Este 6 Este 0 -- -- 87
2017-09-08 07:00:00 18.6 5 Sudeste 9 Sudeste 0 -- -- 87
2017-09-08 06:00:00 19 4 Sur 8 Sudeste 0 -- -- 87
2017-09-08 05:00:00 19.8 5 Sur 8 Sudeste 0 -- -- 88
2017-09-08 04:00:00 20.7 4 Sudeste 10 Sur 0 -- -- 93
2017-09-08 03:00:00 21.1 4 Sudeste 8 Sudeste 0 -- -- 94
2017-09-08 02:00:00 21.6 4 Sudeste 7 Este 0 -- -- 92
2017-09-08 01:00:00 22.4 2 Sur 5 Sudeste 0 -- -- 89
2017-09-08 00:00:00 23.5 3 Sudeste 6 Sudoeste 0 -- -- 87
2017-09-07 23:00:00 24.4 5 Oeste 11 Sudoeste 0 -- -- 87
2017-09-07 22:00:00 24.8 8 Sudoeste 17 Sudoeste 0 -- -- 84
2017-09-07 21:00:00 25.3 7 Sudoeste 15 Sudoeste 0 -- -- 79
2017-09-07 20:00:00 26.8 10 Sudoeste 17 Sudoeste 0 -- -- 73
2017-09-07 19:00:00 27.3 13 Oeste 20 Sudoeste 0 -- -- 73
2017-09-07 18:00:00 27.9 14 Oeste 21 Sudoeste 0 -- -- 71
2017-09-07 17:00:00 28.4 16 Oeste 23 Sudoeste 0 -- -- 62
2017-09-07 16:00:00 28.7 15 Oeste 21 Sudoeste 0 -- -- 63
2017-09-07 15:00:00 29.3 14 Oeste 21 Oeste 0 -- -- 57
2017-09-07 14:00:00 29.9 15 Oeste 21 Oeste 0 -- -- 51
2017-09-07 13:00:00 31.3 6 Este 15 Este 0 -- -- 38
2017-09-07 12:00:00 29.4 8 Este 15 Nordeste 0 -- -- 42
2017-09-07 11:00:00 27.6 8 Este 19 Este 0 -- -- 47
2017-09-07 10:00:00 25.3 4 Este 6 Este 0 -- -- 51
2017-09-07 09:00:00 20.9 5 Nordeste 8 Nordeste 0 -- -- 76
2017-09-07 08:00:00 19.7 2 Este 9 Sur 0 -- -- 81
2017-09-07 07:00:00 19.4 5 Sudeste 7 Sudeste 0 -- -- 79
2017-09-07 06:00:00 20.3 2 Sudeste 6 Sudeste 0 -- -- 79
2017-09-07 05:00:00 21.6 3 Sur 7 Sudoeste 0 -- -- 72
2017-09-07 04:00:00 22.6 4 Sur 13 Sur 0 -- -- 66
2017-09-07 03:00:00 23.3 7 Sur 14 Sur 0 -- -- 67
2017-09-07 02:00:00 22.7 6 Sudeste 9 Sudeste 0 -- -- 92
2017-09-07 01:00:00 23 0 Calma 6 Sur 0 -- -- 90
2017-09-07 00:00:00 23.8 4 Sur 8 Sur 0 -- -- 88
2017-09-06 23:00:00 24.7 4 Sur 10 Sudoeste 0 -- -- 85
2017-09-06 22:00:00 25.4 5 Sudoeste 12 Sur 0 -- -- 85
2017-09-06 21:00:00 26.6 6 Sur 13 Sudoeste 0 -- -- 74
2017-09-06 20:00:00 27.8 9 Oeste 18 Oeste 0 -- -- 69
2017-09-06 19:00:00 28.7 12 Oeste 21 Oeste 0 -- -- 68
2017-09-06 18:00:00 29.3 15 Oeste 23 Oeste 0 -- -- 63
2017-09-06 17:00:00 29.5 15 Oeste 22 Oeste 0 -- -- 66
2017-09-06 16:00:00 30.1 15 Oeste 22 Oeste 0 -- -- 62
2017-09-06 15:00:00 28.9 14 Oeste 21 Oeste 0 -- -- 66
2017-09-06 14:00:00 28.4 15 Oeste 20 Oeste 0 -- -- 71
2017-09-06 13:00:00 27.8 12 Oeste 17 Oeste 0 -- -- 75
2017-09-06 12:00:00 27.7 9 Oeste 14 Noroeste 0 -- -- 71
2017-09-06 11:00:00 27.6 6 Noroeste 10 Oeste 0 -- -- 65
2017-09-06 10:00:00 26 3 Sudeste 7 Este 0 -- -- 66
2017-09-06 09:00:00 21.6 5 Este 7 Sudeste 0 -- -- 93
2017-09-06 08:00:00 20.2 4 Este 6 Sudeste 0 -- -- 93
2017-09-06 07:00:00 20.5 3 Este 6 Sudeste 0 -- -- 93
2017-09-06 06:00:00 20.4 4 Este 4 Este 0 -- -- 93
2017-09-06 05:00:00 20.7 3 Sudeste 6 Este 0 -- -- 93
2017-09-06 04:00:00 21.3 2 Nordeste 7 Noroeste 0 -- -- 93
2017-09-06 03:00:00 21.7 3 Este 5 Este 0 -- -- 92
2017-09-06 02:00:00 22.4 3 Este 5 Sudeste 0 -- -- 91
2017-09-06 01:00:00 23.1 3 Sudeste 4 Sudeste 0 -- -- 89
2017-09-06 00:00:00 24.2 3 Noroeste 10 Noroeste 0 -- -- 88
2017-09-05 23:00:00 24.4 5 Noroeste 8 Oeste 0 -- -- 87
2017-09-05 22:00:00 24.6 3 Oeste 12 Oeste 0 -- -- 84
2017-09-05 21:00:00 25.2 7 Oeste 13 Oeste 0 -- -- 81
2017-09-05 20:00:00 25.7 11 Oeste 21 Oeste 0 -- -- 77
2017-09-05 19:00:00 25.9 15 Oeste 22 Oeste 0 -- -- 77
2017-09-05 18:00:00 26.6 16 Oeste 24 Oeste 0 -- -- 76
2017-09-05 17:00:00 26.9 17 Oeste 25 Oeste 0 -- -- 75
2017-09-05 16:00:00 27 19 Oeste 26 Oeste 0 -- -- 75
2017-09-05 15:00:00 28.2 11 Sudoeste 23 Sudoeste 0 -- -- 69
2017-09-05 14:00:00 28.5 10 Sur 24 Sur 0 -- -- 68
2017-09-05 13:00:00 27.3 13 Sur 24 Sur 0 -- -- 71
2017-09-05 12:00:00 27.3 13 Sur 24 Sur 0 -- -- 74
2017-09-05 11:00:00 27.3 13 Sur 25 Sur 0 -- -- 74
2017-09-05 10:00:00 24.3 5 Sur 11 Sudeste 0 -- -- 85
2017-09-05 09:00:00 20.9 3 Sur 12 Este 0 -- -- 91
2017-09-05 08:00:00 19.4 6 Sudeste 13 Sudeste 0 -- -- 86
2017-09-05 07:00:00 20.1 5 Este 6 Este 0 -- -- 84
2017-09-05 06:00:00 22.6 4 Noroeste 14 Noroeste 0 -- -- 78
2017-09-05 05:00:00 23.1 7 Noroeste 21 Noroeste 0 -- -- 76
2017-09-05 04:00:00 23.5 11 Noroeste 21 Noroeste 0 -- -- 74
2017-09-05 03:00:00 23.9 15 Noroeste 24 Oeste 0 -- -- 74
2017-09-05 02:00:00 24.6 15 Oeste 27 Noroeste 0 -- -- 73
2017-09-05 01:00:00 25 15 Noroeste 30 Oeste 0 -- -- 73
2017-09-05 00:00:00 24.6 10 Oeste 21 Sudoeste 0 -- -- 84
2017-09-04 23:00:00 24.7 14 Oeste 25 Sudoeste 0 -- -- 82
2017-09-04 22:00:00 24.7 17 Oeste 31 Sudoeste 0 -- -- 82
2017-09-04 21:00:00 24.8 20 Sudoeste 33 Sudoeste 0 -- -- 82
2017-09-04 20:00:00 25.9 23 Sudoeste 38 Oeste 0 -- -- 77
2017-09-04 19:00:00 26.9 24 Sudoeste 40 Sudoeste 0 -- -- 71
2017-09-04 18:00:00 26.9 24 Sudoeste 38 Sudoeste 0 -- -- 68
2017-09-04 17:00:00 28 22 Sudoeste 30 Sudoeste 0 -- -- 68
2017-09-04 16:00:00 28.3 18 Oeste 27 Oeste 0 -- -- 63
2017-09-04 15:00:00 27.7 19 Oeste 27 Oeste 0 -- -- 62
2017-09-04 14:00:00 27.5 17 Oeste 24 Oeste 0 -- -- 58
2017-09-04 13:00:00 27 11 Oeste 15 Oeste 0 -- -- 49
2017-09-04 12:00:00 25.3 5 Noroeste 10 Noroeste 0 -- -- 49
2017-09-04 11:00:00 23.6 6 Noroeste 9 Norte 0 -- -- 57
2017-09-04 10:00:00 23.1 4 Norte 17 Noroeste 0 -- -- 65
2017-09-04 09:00:00 22.4 10 Noroeste 19 Noroeste 0 -- -- 69
2017-09-04 08:00:00 21.8 9 Noroeste 16 Noroeste 0 -- -- 68
2017-09-04 07:00:00 21.9 0 Calma 16 Noroeste 0 -- -- 61
2017-09-04 06:00:00 23.5 6 Noroeste 16 Noroeste 0 -- -- 55
2017-09-04 05:00:00 23.9 6 Noroeste 17 Noroeste 0 -- -- 55
2017-09-04 04:00:00 24.4 10 Noroeste 21 Noroeste 0 -- -- 54
2017-09-04 03:00:00 24.8 10 Noroeste 16 Noroeste 0 -- -- 57
2017-09-04 02:00:00 24.6 9 Oeste 15 Oeste 0 -- -- 65
2017-09-04 01:00:00 23.9 8 Oeste 14 Sudoeste 0 -- -- 79
2017-09-04 00:00:00 24.4 8 Oeste 16 Oeste 0 -- -- 71
2017-09-03 23:00:00 24.4 11 Oeste 24 Oeste 0 -- -- 80
2017-09-03 22:00:00 24.4 17 Oeste 27 Oeste 0 -- -- 87
2017-09-03 21:00:00 24.9 17 Oeste 28 Oeste 0 -- -- 86
2017-09-03 20:00:00 25.8 18 Oeste 30 Oeste 0 -- -- 82
2017-09-03 19:00:00 27.3 18 Oeste 28 Oeste 0 -- -- 76
2017-09-03 18:00:00 28 18 Oeste 28 Oeste 0 -- -- 72
2017-09-03 17:00:00 28.6 18 Oeste 27 Oeste 0 -- -- 69
2017-09-03 16:00:00 29 17 Oeste 26 Oeste 0 -- -- 67
2017-09-03 15:00:00 28.3 17 Oeste 26 Oeste 0 -- -- 70
2017-09-03 14:00:00 27.9 18 Oeste 26 Oeste 0 -- -- 68
2017-09-03 13:00:00 28.4 12 Oeste 18 Oeste 0 -- -- 69
2017-09-03 12:00:00 28.5 8 Norte 15 Norte 0 -- -- 64
2017-09-03 11:00:00 27 7 Norte 14 Este 0 -- -- 67
2017-09-03 10:00:00 25.4 8 Nordeste 13 Este 0 -- -- 72
2017-09-03 09:00:00 22.3 5 Nordeste 9 Nordeste 0 -- -- 88
2017-09-03 08:00:00 20.8 5 Nordeste 8 Nordeste 0 -- -- 90
2017-09-03 07:00:00 21.2 5 Nordeste 8 Nordeste 0 -- -- 87
2017-09-03 06:00:00 22 7 Nordeste 14 Nordeste 0 -- -- 79
2017-09-03 05:00:00 21.3 4 Nordeste 5 Nordeste 0 -- -- 83
2017-09-03 04:00:00 22.3 5 Nordeste 9 Nordeste 0 -- -- 75
2017-09-03 03:00:00 23.5 6 Este 12 Nordeste 0 -- -- 71
2017-09-03 02:00:00 24.5 9 Este 24 Este 0 -- -- 68
2017-09-03 01:00:00 24.9 15 Este 23 Este 0 -- -- 69
2017-09-03 00:00:00 25.5 14 Este 23 Este 0 -- -- 66
2017-09-02 23:00:00 26.4 13 Este 32 Sudeste 0 -- -- 63
2017-09-02 22:00:00 27.2 17 Sudeste 30 Sudeste 0 -- -- 61
2017-09-02 21:00:00 28.5 17 Sudeste 36 Sudeste 0 -- -- 56
2017-09-02 20:00:00 30.7 21 Sudeste 44 Sudeste 0 -- -- 50
2017-09-02 19:00:00 32.3 23 Sudeste 38 Sudeste 0 -- -- 46
2017-09-02 18:00:00 33.7 19 Sudeste 35 Sudeste 0 -- -- 45
2017-09-02 17:00:00 32.6 8 Oeste 24 Oeste 0 -- -- 50
2017-09-02 16:00:00 31 18 Oeste 26 Oeste 0 -- -- 60
2017-09-02 15:00:00 31 17 Oeste 26 Oeste 0 -- -- 60
2017-09-02 14:00:00 31.3 9 Noroeste 19 Noroeste 0 -- -- 57
2017-09-02 13:00:00 31 6 Nordeste 22 Sudeste 0 -- -- 58
2017-09-02 12:00:00 30.3 8 Nordeste 18 Nordeste 0 -- -- 60
2017-09-02 11:00:00 27.7 9 Norte 22 Nordeste 0 -- -- 68
2017-09-02 10:00:00 25.8 10 Nordeste 18 Nordeste 0 -- -- 76
2017-09-02 09:00:00 23.4 7 Nordeste 13 Nordeste 0 -- -- 85
2017-09-02 08:00:00 22.1 9 Nordeste 13 Nordeste 0 -- -- 89
2017-09-02 07:00:00 22 7 Nordeste 14 Nordeste 0 -- -- 90
2017-09-02 06:00:00 22 7 Nordeste 12 Nordeste 0 -- -- 91
2017-09-02 05:00:00 21.8 6 Nordeste 9 Nordeste 0 -- -- 88
2017-09-02 04:00:00 21.6 4 Nordeste 6 Este 0 -- -- 89
2017-09-02 03:00:00 21.9 3 Este 5 Este 0 -- -- 88
2017-09-02 02:00:00 22.6 3 Sudoeste 4 Sudoeste 0 -- -- 85
2017-09-02 01:00:00 23.6 2 Sur 8 Sur 0 -- -- 82
2017-09-02 00:00:00 24.5 4 Sur 14 Sudoeste 0 -- -- 84
2017-09-01 23:00:00 24.9 7 Sudoeste 20 Sudoeste 0 -- -- 86
2017-09-01 22:00:00 25.3 13 Sudoeste 21 Sudoeste 0 -- -- 86
2017-09-01 21:00:00 25.7 14 Sudoeste 25 Sudoeste 0 -- -- 83
2017-09-01 20:00:00 27 15 Sudoeste 24 Sudoeste 0 -- -- 76
2017-09-01 19:00:00 28.1 14 Sudoeste 26 Sudoeste 0 -- -- 71
2017-09-01 18:00:00 28.7 20 Sudoeste 27 Sudoeste 0 -- -- 66
2017-09-01 17:00:00 30 17 Sudoeste 26 Sudoeste 0 -- -- 60
2017-09-01 16:00:00 28.9 17 Oeste 24 Oeste 0 -- -- 66
2017-09-01 15:00:00 29.8 17 Oeste 24 Oeste 0 -- -- 59
2017-09-01 14:00:00 29.7 17 Oeste 27 Sur 0 -- -- 64
2017-09-01 13:00:00 30.7 11 Norte 20 Norte 0 -- -- 51
2017-09-01 12:00:00 29.4 9 Nordeste 18 Norte 0 -- -- 57
2017-09-01 11:00:00 27.1 9 Nordeste 22 Nordeste 0 -- -- 64
2017-09-01 10:00:00 24.9 9 Nordeste 15 Nordeste 0 -- -- 74
2017-09-01 09:00:00 21.8 4 Nordeste 11 Nordeste 0 -- -- 86
2017-09-01 08:00:00 20.3 7 Nordeste 11 Nordeste 0 -- -- 89
2017-09-01 07:00:00 19.8 4 Norte 5 Nordeste 0 -- -- 91
2017-09-01 06:00:00 20.1 3 Nordeste 4 Nordeste 0 -- -- 89
2017-09-01 05:00:00 20.7 2 Sudeste 3 Sudeste 0 -- -- 87
2017-09-01 04:00:00 21.6 2 Sudeste 10 Sur 0 -- -- 85
2017-09-01 03:00:00 22.2 5 Sur 12 Sudeste 0 -- -- 82
2017-09-01 02:00:00 22.5 8 Sudeste 11 Sudeste 0 -- -- 89
2017-09-01 01:00:00 22.8 5 Sur 9 Sur 0 -- -- 87
2017-09-01 00:00:00 23.4 5 Sur 12 Sur 0 -- -- 86
2017-08-31 23:00:00 24.1 4 Sur 9 Sudoeste 0 -- -- 82
2017-08-31 22:00:00 25.1 6 Sudoeste 11 Sudoeste 0 -- -- 76
2017-08-31 21:00:00 26.5 8 Sudoeste 15 Sudoeste 0 -- -- 68
2017-08-31 20:00:00 28.5 8 Sur 24 Oeste 0 -- -- 61
2017-08-31 19:00:00 28 17 Oeste 29 Oeste 0 -- -- 67
2017-08-31 18:00:00 28.2 18 Oeste 28 Oeste 0 -- -- 68
2017-08-31 17:00:00 28 18 Oeste 28 Oeste 0 -- -- 74
2017-08-31 16:00:00 28.6 16 Oeste 26 Oeste 0 -- -- 69
2017-08-31 15:00:00 28.3 17 Oeste 24 Oeste 0 -- -- 68
2017-08-31 14:00:00 29.3 11 Noroeste 16 Oeste 0 -- -- 60
2017-08-31 13:00:00 28.3 8 Norte 18 Norte 0 -- -- 57
2017-08-31 12:00:00 26.6 8 Norte 18 Norte 0 -- -- 64
2017-08-31 11:00:00 25.4 9 Norte 18 Norte 0 -- -- 67
2017-08-31 10:00:00 23.9 5 Nordeste 10 Nordeste 0 -- -- 72
2017-08-31 09:00:00 19.9 3 Este 9 Este 0 -- -- 91
2017-08-31 08:00:00 18.2 7 Este 9 Este 0 -- -- 93
2017-08-31 07:00:00 18.5 4 Este 13 Este 0 -- -- 94
2017-08-31 06:00:00 18.6 5 Este 7 Este 0 -- -- 93
2017-08-31 05:00:00 19 3 Este 4 Este 0 -- -- 92
2017-08-31 04:00:00 19.3 3 Sudeste 4 Sudeste 0 -- -- 91
2017-08-31 03:00:00 19.8 3 Sudeste 6 Sudeste 0 -- -- 90
2017-08-31 02:00:00 20.5 3 Sudeste 11 Sudoeste 0 -- -- 89
2017-08-31 01:00:00 21 5 Sudoeste 7 Sudoeste 0 -- -- 88
2017-08-31 00:00:00 21.9 3 Sudoeste 6 Sudoeste 0 -- -- 86
2017-08-30 23:00:00 23 5 Sudoeste 15 Sur 0 -- -- 84
2017-08-30 22:00:00 23.8 5 Sur 18 Sudeste 0 -- -- 80
2017-08-30 21:00:00 24.5 6 Oeste 19 Oeste 0 -- -- 74
2017-08-30 20:00:00 25.4 15 Oeste 24 Oeste 0 -- -- 71
2017-08-30 19:00:00 26.2 16 Oeste 24 Oeste 0 -- -- 66
2017-08-30 18:00:00 26 17 Oeste 28 Oeste 0 -- -- 65
2017-08-30 17:00:00 26 20 Oeste 31 Oeste 0 -- -- 65
2017-08-30 16:00:00 26.1 19 Oeste 28 Oeste 0 -- -- 66
2017-08-30 15:00:00 26 17 Oeste 23 Oeste 0 -- -- 66
2017-08-30 14:00:00 26.2 14 Noroeste 21 Oeste 0 -- -- 65
2017-08-30 13:00:00 25 8 Noroeste 15 Noroeste 0 -- -- 66
2017-08-30 12:00:00 23.6 8 Norte 15 Norte 0 -- -- 69
2017-08-30 11:00:00 23.4 5 Norte 12 Nordeste 0 -- -- 72
2017-08-30 10:00:00 21.8 6 Este 15 Este 0 -- -- 81
2017-08-30 09:00:00 18.2 7 Este 12 Este 0 -- -- 95
2017-08-30 08:00:00 16.9 5 Este 9 Este 0 -- -- 95
2017-08-30 07:00:00 17 6 Este 12 Este 0 -- -- 94
2017-08-30 06:00:00 17.2 6 Este 10 Este 0 -- -- 94
2017-08-30 05:00:00 17.7 3 Este 10 Este 0 -- -- 93
2017-08-30 04:00:00 17.9 6 Este 12 Este 0 -- -- 92
2017-08-30 03:00:00 17.9 3 Sudeste 10 Este 0 -- -- 91
2017-08-30 02:00:00 18.7 5 Sudeste 11 Sudeste 0 -- -- 89
2017-08-30 01:00:00 19 4 Este 8 Sudeste 0 -- -- 88
2017-08-30 00:00:00 19.7 5 Sudeste 8 Sur 0 -- -- 85
2017-08-29 23:00:00 20.8 4 Sudoeste 10 Sudoeste 0 -- -- 81
2017-08-29 22:00:00 21 6 Sudoeste 19 Sudoeste 0 -- -- 79
2017-08-29 21:00:00 21.5 11 Sudoeste 21 Sudoeste 0 -- -- 77
2017-08-29 20:00:00 22.9 14 Sudoeste 27 Sudoeste 0 -- -- 69
2017-08-29 19:00:00 23.8 16 Sudoeste 25 Sudoeste 0 -- -- 66
2017-08-29 18:00:00 24.4 14 Sudoeste 26 Oeste 0 -- -- 69
2017-08-29 17:00:00 24.8 14 Sudoeste 30 Sudoeste 0 -- -- 67
2017-08-29 16:00:00 24.5 15 Sudoeste 26 Sudoeste 0 -- -- 71
2017-08-29 15:00:00 24.3 15 Sudoeste 25 Oeste 0 -- -- 69
2017-08-29 14:00:00 24.5 11 Sur 23 Sudoeste 0 -- -- 68
2017-08-29 13:00:00 22.8 12 Sudoeste 19 Sudoeste 0.4 -- -- 82
2017-08-29 12:00:00 23.3 9 Sur 18 Sudeste 0 -- -- 79
2017-08-29 11:00:00 23 5 Sur 13 Sudeste 0 -- -- 81
2017-08-29 10:00:00 20.8 9 Este 18 Este 0 -- -- 87
2017-08-29 09:00:00 19.2 8 Este 12 Este 0.2 -- -- 97
2017-08-29 08:00:00 18.2 6 Sudeste 12 Sudeste 0 -- -- 96
2017-08-29 07:00:00 18.3 6 Este 9 Este 0 -- -- 93
2017-08-29 06:00:00 18.9 5 Este 9 Sudeste 0 -- -- 93
2017-08-29 05:00:00 19.4 2 Sur 12 Sudoeste 1.8 -- -- 93
2017-08-29 04:00:00 19.9 0 Calma 6 Este 0 -- -- 86
2017-08-29 03:00:00 20.4 0 Calma 11 Sudoeste 0 -- -- 81
2017-08-29 02:00:00 20.9 7 Sudoeste 17 Sudoeste 0 -- -- 81
2017-08-29 01:00:00 21.2 8 Sudoeste 20 Sudoeste 0 -- -- 77
2017-08-29 00:00:00 21.5 10 Sudoeste 23 Sudoeste 0 -- -- 78
2017-08-28 23:00:00 21.7 15 Sudoeste 26 Sudoeste 0 -- -- 76
2017-08-28 22:00:00 21.7 16 Sudoeste 26 Sudoeste 0 -- -- 76
2017-08-28 21:00:00 22 16 Sudoeste 29 Sudoeste 0 -- -- 75
2017-08-28 20:00:00 23.3 18 Sudoeste 30 Sudoeste 0 -- -- 75
2017-08-28 19:00:00 24.3 15 Sudoeste 31 Sudoeste 0 -- -- 73
2017-08-28 18:00:00 24.9 18 Sudoeste 36 Sudoeste 0 -- -- 71
2017-08-28 17:00:00 25.3 22 Sudoeste 35 Sudoeste 0 -- -- 68
2017-08-28 16:00:00 25.2 21 Sudoeste 33 Sudoeste 0 -- -- 71
2017-08-28 15:00:00 25.3 19 Sudoeste 33 Sudoeste 0 -- -- 66
2017-08-28 14:00:00 25.5 15 Sudoeste 30 Sudoeste 0 -- -- 63
2017-08-28 13:00:00 25.3 16 Sudoeste 24 Sudoeste 0 -- -- 64
2017-08-28 12:00:00 24.3 12 Sudoeste 21 Sudoeste 0 -- -- 64
2017-08-28 11:00:00 23.2 9 Sudoeste 15 Sudoeste 0 -- -- 78
2017-08-28 10:00:00 22.1 2 Sudeste 9 Nordeste 0 -- -- 76
2017-08-28 09:00:00 21.3 3 Nordeste 9 Oeste 0 -- -- 77
2017-08-28 08:00:00 21.4 8 Oeste 13 Oeste 0 -- -- 82
2017-08-28 07:00:00 21.2 6 Sudoeste 14 Oeste 0 -- -- 79
2017-08-28 06:00:00 21.9 10 Oeste 23 Sudoeste 0 -- -- 76
2017-08-28 05:00:00 21.7 13 Sudoeste 25 Sudoeste 0 -- -- 85
2017-08-28 04:00:00 21.3 11 Sudoeste 21 Sudoeste 0 -- -- 87
2017-08-28 03:00:00 21.6 15 Sudoeste 27 Sudoeste 0 -- -- 86
2017-08-28 02:00:00 21.7 17 Sudoeste 28 Sudoeste 0 -- -- 86
2017-08-28 01:00:00 21.9 17 Sudoeste 28 Sudoeste 0 -- -- 83
2017-08-28 00:00:00 22.1 14 Sudoeste 28 Sudoeste 0 -- -- 81
2017-08-27 23:00:00 22.3 19 Sudoeste 33 Sudoeste 0 -- -- 80
2017-08-27 22:00:00 22.4 15 Sudoeste 26 Oeste 0 -- -- 81
2017-08-27 21:00:00 22.6 18 Sudoeste 29 Sudoeste 0 -- -- 79
2017-08-27 20:00:00 23.4 21 Sudoeste 32 Sudoeste 0 -- -- 79
2017-08-27 19:00:00 24.9 21 Oeste 30 Oeste 0 -- -- 76
2017-08-27 18:00:00 24.9 23 Oeste 32 Sudoeste 0 -- -- 80
2017-08-27 17:00:00 26.9 18 Sudoeste 29 Sudoeste 0 -- -- 67
2017-08-27 16:00:00 27 14 Sur 28 Sur 0 -- -- 72
2017-08-27 15:00:00 28.6 18 Sur 38 Sur 0 -- -- 68
2017-08-27 14:00:00 28.3 17 Sur 37 Sur 0 -- -- 75
2017-08-27 13:00:00 26.2 11 Sur 25 Sudoeste 0 -- -- 80
2017-08-27 12:00:00 24.8 14 Sudoeste 26 Sudoeste 0 -- -- 83
2017-08-27 11:00:00 24.3 18 Sudoeste 35 Sudoeste 0 -- -- 88
2017-08-27 10:00:00 24.5 11 Sudeste 27 Sudeste 0 -- -- 90
2017-08-27 09:00:00 23.9 17 Sudeste 34 Sudeste 0.8 -- -- 93
2017-08-27 08:00:00 24.4 20 Sudeste 33 Sudeste 0 -- -- 88
2017-08-27 07:00:00 25 15 Sudeste 28 Sudeste 0 -- -- 79
2017-08-27 06:00:00 24.4 12 Sur 22 Sur 0 -- -- 86
2017-08-27 05:00:00 24.9 6 Sur 15 Sudoeste 0 -- -- 82
2017-08-27 04:00:00 25.2 9 Oeste 22 Sudeste 0 -- -- 83
2017-08-27 03:00:00 25.7 9 Sudoeste 28 Sudeste 0 -- -- 76
2017-08-27 02:00:00 26.3 4 Sur 23 Sudoeste 0 -- -- 72
2017-08-27 01:00:00 25.2 15 Sudeste 32 Sudeste 0 -- -- 74
2017-08-27 00:00:00 25 3 Sudoeste 13 Oeste 0 -- -- 82
2017-08-26 23:00:00 24.8 8 Oeste 13 Oeste 0 -- -- 85
2017-08-26 22:00:00 25.2 6 Oeste 15 Oeste 0 -- -- 82
2017-08-26 21:00:00 25.7 10 Oeste 21 Oeste 0 -- -- 80
2017-08-26 20:00:00 27.8 11 Sudoeste 19 Oeste 0 -- -- 73
2017-08-26 19:00:00 27.9 5 Noroeste 41 Oeste 0 -- -- 73
2017-08-26 18:00:00 32.9 13 Sudeste 24 Sudeste 0 -- -- 49
2017-08-26 17:00:00 31.2 9 Sur 20 Sur 0 -- -- 57
2017-08-26 16:00:00 32.1 5 Oeste 22 Este 0 -- -- 53
2017-08-26 15:00:00 35.8 9 Este 22 Este 0 -- -- 35
2017-08-26 14:00:00 34.2 14 Este 31 Este 0 -- -- 36
2017-08-26 13:00:00 31.1 21 Este 38 Este 0 -- -- 45
2017-08-26 12:00:00 29.7 14 Nordeste 23 Nordeste 0 -- -- 54
2017-08-26 11:00:00 27 6 Norte 13 Norte 0 -- -- 69
2017-08-26 10:00:00 26.1 5 Norte 10 Nordeste 0 -- -- 70
2017-08-26 09:00:00 24 4 Norte 14 Norte 0 -- -- 74
2017-08-26 08:00:00 24.2 3 Norte 25 Sudeste 0 -- -- 70
2017-08-26 07:00:00 24.3 13 Este 23 Sudeste 0 -- -- 68
2017-08-26 06:00:00 24.8 12 Sudeste 31 Este 0 -- -- 66
2017-08-26 05:00:00 23.5 4 Oeste 23 Sudoeste 0 -- -- 83
2017-08-26 04:00:00 22.2 7 Este 11 Este 0 -- -- 91
2017-08-26 03:00:00 21.6 3 Este 6 Sudeste 0 -- -- 91
2017-08-26 02:00:00 21.8 3 Oeste 5 Noroeste 0 -- -- 90
2017-08-26 01:00:00 22.6 2 Noroeste 5 Oeste 0 -- -- 86
2017-08-26 00:00:00 24 4 Oeste 7 Noroeste 0 -- -- 82
2017-08-25 23:00:00 25.4 5 Noroeste 10 Oeste 0 -- -- 83
2017-08-25 22:00:00 25.8 4 Oeste 9 Oeste 0 -- -- 79
2017-08-25 21:00:00 26.5 5 Oeste 11 Sudoeste 0 -- -- 70
2017-08-25 20:00:00 28.1 6 Oeste 14 Oeste 0 -- -- 66
2017-08-25 19:00:00 28.2 8 Oeste 16 Oeste 0 -- -- 68
2017-08-25 18:00:00 27.9 12 Oeste 22 Oeste 0 -- -- 72
2017-08-25 17:00:00 28.4 13 Oeste 18 Oeste 0 -- -- 69
2017-08-25 16:00:00 29.8 11 Oeste 23 Oeste 0 -- -- 56
2017-08-25 15:00:00 29.2 14 Oeste 27 Oeste 0 -- -- 61
2017-08-25 14:00:00 28.9 12 Oeste 17 Oeste 0 -- -- 64
2017-08-25 13:00:00 29 3 Sudeste 19 Sudoeste 0 -- -- 62
2017-08-25 12:00:00 26.3 7 Oeste 14 Noroeste 0 -- -- 75
2017-08-25 11:00:00 26 6 Oeste 10 Oeste 0 -- -- 71
2017-08-25 10:00:00 23.8 2 Sudeste 12 Este 0 -- -- 87
2017-08-25 09:00:00 22.3 4 Este 9 Este 0 -- -- 90
2017-08-25 08:00:00 21.4 2 Sudeste 6 Este 0 -- -- 90
2017-08-25 07:00:00 22.3 4 Sur 10 Sudoeste 0 -- -- 85
2017-08-25 06:00:00 22.9 2 Sur 15 Sudeste 0 -- -- 74
2017-08-25 05:00:00 23.8 10 Sudeste 18 Sur 0 -- -- 64
2017-08-25 04:00:00 24.2 9 Oeste 30 Sudeste 0.2 -- -- 59
2017-08-25 03:00:00 24.9 10 Este 17 Este 0 -- -- 51
2017-08-25 02:00:00 22.1 5 Sudeste 13 Este 0 -- -- 79
2017-08-25 01:00:00 21.9 5 Este 10 Sudeste 0 -- -- 83
2017-08-25 00:00:00 22.8 4 Sudeste 6 Este 0 -- -- 82
2017-08-24 23:00:00 24.4 3 Sudoeste 14 Oeste 0 -- -- 77
2017-08-24 22:00:00 25.3 8 Oeste 17 Oeste 0 -- -- 73
2017-08-24 21:00:00 25.9 11 Oeste 17 Oeste 0 -- -- 74
2017-08-24 20:00:00 27.6 7 Oeste 15 Oeste 0 -- -- 70
2017-08-24 19:00:00 27.9 12 Oeste 22 Oeste 0 -- -- 68
2017-08-24 18:00:00 28.7 12 Oeste 21 Oeste 0 -- -- 64
2017-08-24 17:00:00 28.6 13 Oeste 20 Oeste 0 -- -- 67
2017-08-24 16:00:00 28.8 15 Oeste 23 Oeste 0 -- -- 61
2017-08-24 15:00:00 28.3 14 Oeste 23 Oeste 0 -- -- 62
2017-08-24 14:00:00 27.8 17 Oeste 22 Oeste 0 -- -- 68
2017-08-24 13:00:00 27.1 13 Oeste 18 Oeste 0 -- -- 66
2017-08-24 12:00:00 27.1 10 Oeste 15 Oeste 0 -- -- 65
2017-08-24 11:00:00 27.3 4 Sur 10 Sur 0 -- -- 61
2017-08-24 10:00:00 24.8 4 Este 7 Este 0 -- -- 64
2017-08-24 09:00:00 20.9 2 Sur 8 Sudoeste 0 -- -- 78
2017-08-24 08:00:00 19.2 3 Sudeste 6 Sudeste 0 -- -- 78
2017-08-24 07:00:00 18.8 2 Sur 8 Este 0 -- -- 80
2017-08-24 06:00:00 19.4 5 Este 8 Este 0 -- -- 78
2017-08-24 05:00:00 20.2 4 Sur 8 Sur 0 -- -- 71
2017-08-24 04:00:00 21.3 4 Sudeste 12 Este 0 -- -- 68
2017-08-24 03:00:00 21.4 7 Este 14 Este 0 -- -- 80
2017-08-24 02:00:00 21.8 2 Sur 7 Sudeste 0 -- -- 84
2017-08-24 01:00:00 22.3 4 Sudeste 9 Sudeste 0 -- -- 87
2017-08-24 00:00:00 22.9 4 Sudeste 8 Sur 0 -- -- 86
2017-08-23 23:00:00 24.1 4 Sur 10 Sur 0 -- -- 80
2017-08-23 22:00:00 24.8 7 Sudoeste 15 Sudoeste 0 -- -- 78
2017-08-23 21:00:00 25.7 7 Sudoeste 19 Oeste 0 -- -- 73
2017-08-23 20:00:00 26.7 14 Oeste 26 Oeste 0 -- -- 72
2017-08-23 19:00:00 27.5 18 Oeste 28 Oeste 0 -- -- 65
2017-08-23 18:00:00 28.4 18 Oeste 24 Oeste 0 -- -- 72
2017-08-23 17:00:00 29.1 18 Oeste 24 Oeste 0 -- -- 64
2017-08-23 16:00:00 30 15 Oeste 19 Oeste 0 -- -- 63
2017-08-23 15:00:00 29.8 13 Oeste 20 Oeste 0 -- -- 61
2017-08-23 14:00:00 28.6 14 Oeste 19 Oeste 0 -- -- 66
2017-08-23 13:00:00 28.4 13 Oeste 18 Noroeste 0 -- -- 62
2017-08-23 12:00:00 28.7 10 Oeste 13 Oeste 0 -- -- 62
2017-08-23 11:00:00 28.6 4 Este 9 Este 0 -- -- 53
2017-08-23 10:00:00 25.6 0 Calma 5 Este 0 -- -- 68
2017-08-23 09:00:00 20.9 4 Este 5 Este 0 -- -- 87
2017-08-23 08:00:00 18.5 4 Este 6 Este 0 -- -- 88
2017-08-23 07:00:00 18.8 3 Este 5 Este 0 -- -- 88
2017-08-23 06:00:00 19.6 3 Este 6 Sur 0 -- -- 88
2017-08-23 05:00:00 19.7 6 Sudeste 8 Sur 0 -- -- 88
2017-08-23 04:00:00 20.8 2 Este 5 Sudeste 0 -- -- 89
2017-08-23 03:00:00 21.7 0 Calma 5 Sur 0 -- -- 87
2017-08-23 02:00:00 23 3 Sur 8 Oeste 0 -- -- 86
2017-08-23 01:00:00 24.2 6 Sudoeste 14 Oeste 0 -- -- 84
2017-08-23 00:00:00 24.4 9 Oeste 16 Oeste 0 -- -- 87
2017-08-22 23:00:00 23.9 6 Sudoeste 11 Oeste 0 -- -- 84
2017-08-22 22:00:00 24.4 8 Sudoeste 14 Oeste 0 -- -- 80
2017-08-22 21:00:00 25.4 10 Sudoeste 18 Sudoeste 0 -- -- 78
2017-08-22 20:00:00 26.5 13 Oeste 24 Oeste 0 -- -- 73
2017-08-22 19:00:00 27.1 18 Oeste 24 Oeste 0 -- -- 72
2017-08-22 18:00:00 28 16 Oeste 26 Oeste 0 -- -- 72
2017-08-22 17:00:00 28.7 18 Sudoeste 28 Oeste 0 -- -- 65
2017-08-22 16:00:00 29.5 16 Sudoeste 25 Sudoeste 0 -- -- 63
2017-08-22 15:00:00 32.2 12 Sur 26 Sudoeste 0 -- -- 49
2017-08-22 14:00:00 30.8 14 Oeste 21 Oeste 0 -- -- 51
2017-08-22 13:00:00 32.7 6 Sur 19 Sudeste 0 -- -- 46
2017-08-22 12:00:00 30.7 8 Este 17 Sudeste 0 -- -- 42
2017-08-22 11:00:00 28.6 7 Este 14 Nordeste 0 -- -- 51
2017-08-22 10:00:00 25.9 9 Este 15 Nordeste 0 -- -- 72
2017-08-22 09:00:00 22.4 6 Nordeste 11 Este 0 -- -- 91
2017-08-22 08:00:00 20.7 4 Este 6 Este 0 -- -- 91
2017-08-22 07:00:00 21.6 5 Nordeste 8 Nordeste 0 -- -- 90
2017-08-22 06:00:00 22.1 5 Nordeste 10 Norte 0 -- -- 90
2017-08-22 05:00:00 22.4 5 Nordeste 10 Nordeste 0 -- -- 88
2017-08-22 04:00:00 22.4 4 Nordeste 10 Nordeste 0 -- -- 79
2017-08-22 03:00:00 23.6 3 Norte 21 Este 0 -- -- 68
2017-08-22 02:00:00 24.2 10 Este 22 Este 0 -- -- 68
2017-08-22 01:00:00 24.1 4 Sudeste 11 Sudeste 0 -- -- 71
2017-08-22 00:00:00 25 9 Sudeste 21 Sudeste 0 -- -- 67